createdAt,value
2018-06-19T00:00:30.458Z,19.00
2018-06-19T00:02:59.438Z,18.90
2018-06-19T00:05:31.771Z,19.00
2018-06-19T00:08:02.093Z,18.90
2018-06-19T00:10:31.382Z,18.90
2018-06-19T00:12:59.843Z,18.80
2018-06-19T00:15:28.292Z,18.80
2018-06-19T00:18:03.511Z,18.80
2018-06-19T00:20:31.969Z,18.90
2018-06-19T00:23:00.517Z,18.80
2018-06-19T00:25:29.003Z,18.70
2018-06-19T00:27:57.527Z,18.50
2018-06-19T00:30:25.983Z,18.40
2018-06-19T00:32:54.506Z,18.40
2018-06-19T00:35:22.994Z,18.50
2018-06-19T00:37:51.458Z,18.60
2018-06-19T00:40:19.901Z,18.50
2018-06-19T00:42:48.374Z,18.50
2018-06-19T00:45:16.827Z,18.50
2018-06-19T00:47:45.338Z,18.60
2018-06-19T00:50:13.794Z,18.70
2018-06-19T00:52:42.256Z,18.80
2018-06-19T00:55:10.749Z,18.70
2018-06-19T00:57:39.217Z,18.70
2018-06-19T01:00:07.647Z,18.60
2018-06-19T01:02:36.147Z,18.60
2018-06-19T01:05:04.623Z,18.50
2018-06-19T01:07:33.094Z,18.40
2018-06-19T01:10:01.531Z,18.30
2018-06-19T01:12:30.013Z,18.30
2018-06-19T01:14:58.475Z,18.30
2018-06-19T01:17:26.934Z,18.30
2018-06-19T01:19:55.442Z,18.20
2018-06-19T01:22:23.908Z,18.20
2018-06-19T01:24:52.387Z,18.10
2018-06-19T01:27:20.876Z,18.10
2018-06-19T01:29:49.335Z,18.00
2018-06-19T01:32:17.782Z,18.10
2018-06-19T01:34:46.234Z,18.20
2018-06-19T01:37:14.721Z,18.00
2018-06-19T01:39:43.219Z,18.00
2018-06-19T01:42:11.671Z,17.90
2018-06-19T01:44:40.141Z,17.90
2018-06-19T01:47:08.586Z,18.00
2018-06-19T01:49:37.058Z,18.00
2018-06-19T01:52:05.517Z,17.90
2018-06-19T01:54:34.007Z,17.90
2018-06-19T01:57:02.511Z,17.80
2018-06-19T01:59:30.991Z,17.70
2018-06-19T02:01:59.444Z,17.70
2018-06-19T02:04:27.938Z,17.80
2018-06-19T02:06:56.398Z,17.80
2018-06-19T02:09:24.866Z,17.80
2018-06-19T02:14:21.506Z,17.50
2018-06-19T02:16:49.991Z,17.60
2018-06-19T02:19:18.492Z,17.60
2018-06-19T02:21:46.947Z,17.50
2018-06-19T02:24:15.419Z,17.50
2018-06-19T02:26:43.877Z,17.40
2018-06-19T02:29:12.357Z,17.50
2018-06-19T02:31:40.817Z,17.60
2018-06-19T02:34:09.338Z,17.50
2018-06-19T02:36:37.831Z,17.30
2018-06-19T02:39:09.639Z,17.40
2018-06-19T02:41:38.245Z,17.40
2018-06-19T02:44:06.871Z,17.40
2018-06-19T02:46:35.359Z,17.30
2018-06-19T02:49:04.135Z,17.30
2018-06-19T02:51:32.634Z,17.30
2018-06-19T02:54:01.154Z,17.20
2018-06-19T02:56:29.623Z,17.10
2018-06-19T02:58:58.098Z,17.10
2018-06-19T03:01:26.554Z,17.10
2018-06-19T03:03:55.146Z,17.00
2018-06-19T03:06:23.663Z,17.20
2018-06-19T03:08:52.118Z,17.20
2018-06-19T03:11:20.596Z,17.10
2018-06-19T03:13:49.067Z,17.00
2018-06-19T03:16:17.633Z,16.90
2018-06-19T03:18:46.081Z,17.00
2018-06-19T03:21:14.600Z,17.00
2018-06-19T03:23:43.098Z,17.00
2018-06-19T03:26:12.705Z,16.90
2018-06-19T03:28:41.200Z,17.00
2018-06-19T03:31:09.878Z,16.90
2018-06-19T03:33:38.988Z,16.90
2018-06-19T03:36:07.822Z,17.00
2018-06-19T03:38:36.251Z,16.90
2018-06-19T03:41:04.714Z,16.90
2018-06-19T03:43:33.149Z,16.90
2018-06-19T03:46:01.614Z,17.00
2018-06-19T03:48:30.046Z,16.90
2018-06-19T03:50:58.579Z,17.00
2018-06-19T03:53:27.018Z,16.90
2018-06-19T03:55:55.540Z,17.00
2018-06-19T03:58:24.049Z,17.00
2018-06-19T04:00:52.912Z,17.00
2018-06-19T04:03:21.333Z,17.10
2018-06-19T04:05:49.884Z,17.10
2018-06-19T04:08:18.306Z,17.20
2018-06-19T04:10:46.786Z,17.10
2018-06-19T04:13:15.283Z,17.10
2018-06-19T04:15:43.737Z,17.20
2018-06-19T04:18:12.154Z,17.30
2018-06-19T04:20:40.625Z,17.30
2018-06-19T04:23:09.047Z,17.40
2018-06-19T04:25:37.483Z,17.40
2018-06-19T04:28:06.058Z,17.40
2018-06-19T04:30:34.597Z,17.50
2018-06-19T04:33:03.089Z,17.60
2018-06-19T04:35:31.589Z,17.60
2018-06-19T04:38:00.078Z,17.70
2018-06-19T04:40:28.506Z,17.70
2018-06-19T04:42:57.002Z,17.70
2018-06-19T04:45:25.447Z,17.80
2018-06-19T04:47:53.906Z,17.80
2018-06-19T04:50:22.381Z,17.90
2018-06-19T04:52:50.939Z,18.00
2018-06-19T04:55:19.378Z,18.00
2018-06-19T04:57:47.853Z,18.10
2018-06-19T05:00:16.330Z,18.20
2018-06-19T05:02:44.837Z,18.20
2018-06-19T05:05:14.266Z,18.10
2018-06-19T05:07:42.706Z,18.20
2018-06-19T05:10:11.154Z,18.00
2018-06-19T05:12:39.657Z,18.20
2018-06-19T05:15:08.138Z,18.20
2018-06-19T05:17:36.590Z,18.00
2018-06-19T05:20:05.086Z,18.00
2018-06-19T05:22:33.654Z,18.00
2018-06-19T05:27:30.238Z,18.30
2018-06-19T05:29:58.665Z,18.50
2018-06-19T05:32:27.134Z,18.60
2018-06-19T05:34:55.566Z,18.70
2018-06-19T05:37:24.088Z,18.70
2018-06-19T05:39:52.542Z,18.70
2018-06-19T05:42:20.994Z,18.70
2018-06-19T05:44:49.442Z,18.70
2018-06-19T05:47:17.890Z,18.70
2018-06-19T05:49:46.330Z,18.70
2018-06-19T05:52:14.802Z,18.80
2018-06-19T05:54:43.241Z,19.00
2018-06-19T05:57:11.674Z,19.20
2018-06-19T05:59:40.200Z,19.20
2018-06-19T06:02:08.763Z,19.40
2018-06-19T06:04:37.232Z,19.50
2018-06-19T06:07:05.870Z,19.50
2018-06-19T06:09:34.326Z,19.70
2018-06-19T06:12:02.742Z,19.90
2018-06-19T06:14:31.195Z,20.00
2018-06-19T06:16:59.614Z,20.20
2018-06-19T06:19:28.066Z,20.30
2018-06-19T06:21:56.499Z,20.30
2018-06-19T06:24:24.971Z,20.50
2018-06-19T06:26:53.406Z,20.70
2018-06-19T06:29:21.907Z,20.90
2018-06-19T06:31:50.398Z,21.00
2018-06-19T06:34:18.884Z,20.90
2018-06-19T06:36:47.354Z,20.40
2018-06-19T06:39:15.838Z,20.50
2018-06-19T06:41:44.322Z,20.80
2018-06-19T06:44:12.809Z,20.80
2018-06-19T06:46:41.306Z,20.70
2018-06-19T06:49:09.786Z,20.80
2018-06-19T06:51:38.257Z,21.20
2018-06-19T06:54:06.746Z,21.50
2018-06-19T06:56:35.225Z,21.60
2018-06-19T06:59:03.700Z,21.80
2018-06-19T07:01:32.161Z,21.90
2018-06-19T07:04:00.625Z,21.70
2018-06-19T07:06:29.133Z,21.40
2018-06-19T07:08:57.627Z,21.10
2018-06-19T07:11:26.089Z,21.30
2018-06-19T07:13:54.586Z,21.40
2018-06-19T07:16:23.074Z,21.30
2018-06-19T07:18:51.553Z,21.50
2018-06-19T07:21:20.035Z,21.80
2018-06-19T07:23:48.492Z,22.30
2018-06-19T07:26:16.966Z,22.60
2018-06-19T07:28:45.430Z,22.80
2018-06-19T07:31:13.931Z,23.00
2018-06-19T07:33:42.386Z,22.80
2018-06-19T07:36:10.895Z,22.80
2018-06-19T07:38:39.353Z,22.30
2018-06-19T07:41:07.835Z,22.40
2018-06-19T07:43:36.309Z,22.40
2018-06-19T07:46:04.837Z,22.80
2018-06-19T07:48:33.286Z,22.30
2018-06-19T07:51:01.745Z,21.80
2018-06-19T07:53:30.186Z,22.10
2018-06-19T07:55:58.645Z,22.20
2018-06-19T07:58:27.106Z,22.50
2018-06-19T08:00:55.574Z,23.10
2018-06-19T08:03:24.049Z,23.30
2018-06-19T08:05:52.587Z,23.50
2018-06-19T08:08:21.049Z,23.50
2018-06-19T08:10:49.521Z,23.70
2018-06-19T08:13:18.002Z,23.90
2018-06-19T08:15:46.482Z,23.90
2018-06-19T08:18:14.918Z,24.10
2018-06-19T08:20:43.358Z,24.30
2018-06-19T08:23:11.833Z,24.30
2018-06-19T08:25:40.301Z,24.10
2018-06-19T08:28:08.759Z,24.30
2018-06-19T08:30:37.215Z,24.70
2018-06-19T08:35:33.974Z,25.20
2018-06-19T08:38:02.438Z,25.40
2018-06-19T08:40:30.863Z,24.80
2018-06-19T08:42:59.306Z,24.90
2018-06-19T08:45:27.723Z,25.00
2018-06-19T08:47:56.270Z,24.90
2018-06-19T08:50:24.648Z,25.30
2018-06-19T08:52:53.127Z,25.40
2018-06-19T08:55:21.603Z,25.20
2018-06-19T08:57:50.042Z,24.40
2018-06-19T09:00:18.473Z,24.00
2018-06-19T09:02:46.906Z,23.90
2018-06-19T09:05:15.331Z,24.60
2018-06-19T09:07:43.861Z,25.20
2018-06-19T09:10:12.283Z,25.50
2018-06-19T09:12:40.743Z,25.70
2018-06-19T09:17:37.365Z,25.90
2018-06-19T09:20:05.844Z,25.90
2018-06-19T09:22:34.294Z,25.90
2018-06-19T09:25:02.801Z,25.90
2018-06-19T09:27:31.230Z,25.90
2018-06-19T09:29:59.674Z,25.60
2018-06-19T09:32:28.120Z,25.50
2018-06-19T09:34:56.571Z,25.50
2018-06-19T09:37:25.042Z,25.30
2018-06-19T09:39:53.493Z,25.20
2018-06-19T09:42:21.937Z,25.00
2018-06-19T09:44:50.426Z,24.90
2018-06-19T09:47:18.865Z,24.70
2018-06-19T09:49:47.405Z,24.70
2018-06-19T09:52:15.822Z,24.80
2018-06-19T09:54:44.358Z,25.00
2018-06-19T09:57:12.775Z,24.80
2018-06-19T09:59:41.303Z,24.70
2018-06-19T10:02:09.814Z,24.30
2018-06-19T10:04:38.276Z,23.90
2018-06-19T10:07:06.730Z,23.90
2018-06-19T10:09:35.214Z,24.10
2018-06-19T10:12:03.697Z,24.20
2018-06-19T10:14:32.157Z,24.40
2018-06-19T10:17:00.594Z,24.30
2018-06-19T10:19:29.063Z,24.20
2018-06-19T10:21:57.483Z,24.00
2018-06-19T10:24:25.958Z,23.90
2018-06-19T10:26:54.387Z,23.70
2018-06-19T10:29:22.814Z,23.50
2018-06-19T10:31:51.271Z,23.40
2018-06-19T10:34:19.690Z,23.30
2018-06-19T10:36:48.222Z,23.30
2018-06-19T10:39:16.686Z,23.30
2018-06-19T10:41:45.207Z,23.20
2018-06-19T10:44:13.666Z,23.40
2018-06-19T10:46:42.159Z,23.60
2018-06-19T10:49:10.627Z,23.40
2018-06-19T10:51:39.173Z,23.40
2018-06-19T10:54:07.691Z,23.40
2018-06-19T10:56:36.178Z,23.10
2018-06-19T10:59:04.754Z,23.10
2018-06-19T11:01:33.215Z,23.10
2018-06-19T11:04:01.726Z,22.90
2018-06-19T11:06:30.251Z,22.60
2018-06-19T11:08:58.756Z,22.70
2018-06-19T11:11:27.214Z,22.90
2018-06-19T11:13:55.666Z,23.10
2018-06-19T11:16:24.159Z,23.10
2018-06-19T11:18:52.626Z,22.80
2018-06-19T11:21:21.104Z,22.90
2018-06-19T11:23:49.664Z,23.40
2018-06-19T11:26:18.093Z,23.70
2018-06-19T11:28:46.591Z,23.80
2018-06-19T11:31:15.066Z,24.00
2018-06-19T11:33:43.514Z,24.00
2018-06-19T11:36:11.978Z,23.90
2018-06-19T11:38:40.440Z,24.00
2018-06-19T11:41:08.851Z,24.40
2018-06-19T11:43:37.294Z,24.80
2018-06-19T11:46:05.818Z,25.10
2018-06-19T11:48:34.290Z,25.30
2018-06-19T11:51:02.733Z,25.50
2018-06-19T11:53:31.180Z,25.90
2018-06-19T11:55:59.617Z,26.20
2018-06-19T11:58:28.085Z,26.30
2018-06-19T12:03:24.689Z,26.80
2018-06-19T12:05:53.170Z,26.40
2018-06-19T12:08:21.667Z,26.40
2018-06-19T12:10:50.140Z,27.10
2018-06-19T12:13:18.589Z,27.30
2018-06-19T12:15:47.069Z,27.20
2018-06-19T12:18:15.567Z,27.10
2018-06-19T12:20:44.053Z,26.60
2018-06-19T12:23:12.614Z,26.70
2018-06-19T12:25:41.038Z,26.80
2018-06-19T12:28:09.554Z,26.70
2018-06-19T12:30:37.981Z,26.60
2018-06-19T12:33:06.435Z,26.60
2018-06-19T12:35:34.922Z,26.40
2018-06-19T12:38:03.386Z,26.30
2018-06-19T12:40:31.814Z,26.30
2018-06-19T12:43:00.317Z,26.20
2018-06-19T12:45:28.735Z,26.30
2018-06-19T12:47:57.183Z,26.40
2018-06-19T12:50:39.187Z,26.00
2018-06-19T12:53:19.525Z,26.00
2018-06-19T12:55:59.738Z,25.10
2018-06-19T12:58:28.203Z,25.40
2018-06-19T13:00:56.662Z,25.50
2018-06-19T13:03:36.318Z,25.60
2018-06-19T13:06:15.950Z,25.80
2018-06-19T13:08:46.638Z,25.90
2018-06-19T13:11:15.904Z,25.20
2018-06-19T13:13:55.643Z,24.90
2018-06-19T13:16:35.724Z,25.20
2018-06-19T13:19:15.492Z,25.10
2018-06-19T13:21:44.022Z,25.50
2018-06-19T13:24:12.514Z,25.50
2018-06-19T13:26:40.980Z,25.10
2018-06-19T13:29:49.451Z,25.10
2018-06-19T13:32:17.877Z,25.40
2018-06-19T13:34:46.495Z,25.40
2018-06-19T13:37:14.977Z,25.60
2018-06-19T13:39:43.958Z,25.10
2018-06-19T13:42:24.097Z,25.10
2018-06-19T13:44:57.399Z,24.60
2018-06-19T13:47:25.887Z,24.60
2018-06-19T13:49:54.375Z,24.60
2018-06-19T13:52:22.897Z,24.90
2018-06-19T13:54:51.354Z,24.50
2018-06-19T13:57:35.142Z,24.60
2018-06-19T14:00:05.162Z,24.60
2018-06-19T14:02:33.655Z,24.50
2018-06-19T14:05:02.707Z,24.30
2018-06-19T14:10:21.157Z,24.50
2018-06-19T14:12:50.887Z,24.70
2018-06-19T14:15:20.669Z,24.50
2018-06-19T14:17:49.154Z,24.70
2018-06-19T14:20:17.651Z,24.90
2018-06-19T14:25:14.298Z,25.20
2018-06-19T14:27:42.762Z,25.20
2018-06-19T14:30:11.239Z,25.30
2018-06-19T14:32:39.734Z,25.10
2018-06-19T14:37:36.401Z,25.20
2018-06-19T14:40:05.086Z,25.30
2018-06-19T14:42:33.634Z,25.10
2018-06-19T14:45:02.128Z,24.90
2018-06-19T14:47:30.558Z,24.70
2018-06-19T14:49:59.790Z,24.80
2018-06-19T14:52:28.643Z,24.70
2018-06-19T14:54:57.125Z,24.40
2018-06-19T14:57:25.627Z,24.30
2018-06-19T14:59:54.124Z,24.20
2018-06-19T15:04:50.754Z,23.90
2018-06-19T15:07:19.199Z,23.90
2018-06-19T15:09:47.667Z,23.80
2018-06-19T15:12:16.124Z,23.80
2018-06-19T15:14:44.629Z,23.80
2018-06-19T15:17:13.071Z,23.80
2018-06-19T15:19:41.646Z,24.10
2018-06-19T15:22:10.090Z,24.30
2018-06-19T15:24:38.559Z,24.20
2018-06-19T15:27:07.037Z,24.20
2018-06-19T15:29:35.533Z,24.20
2018-06-19T15:32:03.969Z,24.50
2018-06-19T15:34:32.450Z,24.30
2018-06-19T15:37:00.931Z,24.20
2018-06-19T15:39:29.370Z,24.30
2018-06-19T15:41:57.804Z,24.50
2018-06-19T15:44:26.233Z,24.50
2018-06-19T15:46:54.750Z,24.30
2018-06-19T15:49:23.226Z,24.30
2018-06-19T15:51:51.648Z,24.40
2018-06-19T15:56:48.229Z,24.50
2018-06-19T15:59:16.678Z,24.50
2018-06-19T16:01:45.146Z,24.70
2018-06-19T16:04:14.530Z,24.50
2018-06-19T16:06:43.042Z,24.50
2018-06-19T16:09:11.846Z,24.80
2018-06-19T16:11:40.307Z,25.00
2018-06-19T16:14:08.753Z,25.10
2018-06-19T16:16:37.195Z,25.10
2018-06-19T16:19:05.647Z,25.20
2018-06-19T16:21:34.103Z,24.80
2018-06-19T16:24:02.614Z,24.80
2018-06-19T16:26:31.054Z,24.80
2018-06-19T16:28:59.483Z,24.70
2018-06-19T16:31:27.950Z,24.60
2018-06-19T16:33:56.375Z,24.60
2018-06-19T16:36:24.858Z,24.70
2018-06-19T16:38:53.297Z,24.50
2018-06-19T16:41:21.747Z,24.70
2018-06-19T16:43:50.162Z,25.00
2018-06-19T16:46:18.653Z,24.70
2018-06-19T16:48:47.098Z,24.50
2018-06-19T16:51:15.578Z,24.40
2018-06-19T16:53:44.033Z,24.40
2018-06-19T16:56:12.450Z,24.50
2018-06-19T16:58:40.887Z,24.70
2018-06-19T17:01:09.353Z,24.40
2018-06-19T17:03:37.776Z,24.60
2018-06-19T17:06:06.223Z,24.80
2018-06-19T17:08:34.666Z,24.60
2018-06-19T17:11:03.127Z,24.50
2018-06-19T17:13:31.549Z,24.30
2018-06-19T17:16:00.017Z,24.60
2018-06-19T17:18:28.458Z,24.60
2018-06-19T17:20:56.905Z,24.50
2018-06-19T17:23:25.314Z,24.50
2018-06-19T17:25:53.743Z,24.40
2018-06-19T17:28:22.205Z,24.50
2018-06-19T17:30:50.626Z,24.60
2018-06-19T17:33:19.073Z,24.60
2018-06-19T17:35:47.530Z,24.50
2018-06-19T17:38:16.015Z,24.20
2018-06-19T17:40:44.532Z,24.30
2018-06-19T17:43:12.962Z,24.50
2018-06-19T17:45:41.406Z,24.70
2018-06-19T17:48:09.886Z,24.80
2018-06-19T17:50:38.343Z,24.80
2018-06-19T17:53:07.064Z,24.70
2018-06-19T17:55:35.538Z,24.80
2018-06-19T17:58:04.009Z,24.80
2018-06-19T18:00:32.471Z,24.90
2018-06-19T18:03:00.958Z,25.10
2018-06-19T18:05:29.405Z,25.00
2018-06-19T18:07:57.861Z,25.10
2018-06-19T18:10:26.323Z,25.00
2018-06-19T18:12:54.913Z,24.80
2018-06-19T18:15:23.442Z,24.70
2018-06-19T18:17:51.869Z,24.70
2018-06-19T18:20:20.314Z,24.40
2018-06-19T18:22:48.783Z,24.10
2018-06-19T18:25:18.035Z,23.90
2018-06-19T18:27:46.465Z,23.90
2018-06-19T18:30:14.935Z,23.60
2018-06-19T18:32:43.457Z,23.60
2018-06-19T18:35:11.909Z,23.40
2018-06-19T18:37:40.376Z,23.70
2018-06-19T18:40:08.838Z,23.60
2018-06-19T18:42:37.275Z,23.30
2018-06-19T18:45:05.777Z,23.10
2018-06-19T18:50:02.369Z,23.20
2018-06-19T18:52:30.822Z,23.10
2018-06-19T18:54:59.301Z,23.00
2018-06-19T18:57:27.762Z,23.00
2018-06-19T18:59:56.238Z,23.20
2018-06-19T19:02:24.706Z,23.20
2018-06-19T19:04:53.230Z,23.20
2018-06-19T19:07:21.698Z,23.10
2018-06-19T19:09:55.490Z,23.20
2018-06-19T19:12:23.979Z,22.90
2018-06-19T19:14:57.818Z,22.70
2018-06-19T19:17:31.685Z,22.30
2018-06-19T19:20:00.236Z,22.20
2018-06-19T19:22:28.679Z,22.40
2018-06-19T19:24:57.142Z,22.20
2018-06-19T19:27:30.890Z,22.30
2018-06-19T19:29:59.411Z,22.10
2018-06-19T19:32:27.870Z,22.30
2018-06-19T19:34:56.337Z,22.00
2018-06-19T19:37:30.229Z,22.10
2018-06-19T19:39:58.701Z,22.20
2018-06-19T19:42:27.149Z,22.10
2018-06-19T19:44:55.711Z,21.90
2018-06-19T19:47:29.602Z,21.90
2018-06-19T19:49:58.062Z,21.90
2018-06-19T19:52:26.486Z,21.70
2018-06-19T19:54:54.939Z,21.70
2018-06-19T19:57:28.647Z,21.40
2018-06-19T19:59:57.190Z,21.30
2018-06-19T20:02:25.638Z,21.30
2018-06-19T20:04:54.118Z,21.40
2018-06-19T20:07:22.606Z,21.30
2018-06-19T20:09:51.561Z,21.30
2018-06-19T20:12:20.030Z,21.00
2018-06-19T20:14:48.460Z,21.10
2018-06-19T20:17:16.966Z,21.20
2018-06-19T20:19:45.414Z,21.30
2018-06-19T20:22:13.891Z,21.20
2018-06-19T20:24:42.310Z,21.00
2018-06-19T20:27:10.754Z,21.00
2018-06-19T20:29:39.193Z,20.60
2018-06-19T20:32:07.698Z,20.60
2018-06-19T20:34:36.121Z,20.70
2018-06-19T20:37:04.589Z,20.70
2018-06-19T20:39:33.045Z,20.50
2018-06-19T20:42:01.544Z,20.70
2018-06-19T20:44:30.624Z,20.40
2018-06-19T20:46:59.067Z,20.30
2018-06-19T20:49:27.500Z,20.30
2018-06-19T20:51:55.943Z,20.60
2018-06-19T20:54:24.711Z,20.50
2018-06-19T20:56:53.142Z,20.50
2018-06-19T20:59:21.576Z,20.40
2018-06-19T21:01:50.044Z,20.30
2018-06-19T21:04:18.538Z,20.20
2018-06-19T21:06:47.212Z,20.10
2018-06-19T21:09:15.649Z,20.20
2018-06-19T21:11:44.079Z,20.00
2018-06-19T21:14:12.558Z,20.00
2018-06-19T21:16:40.986Z,20.00
2018-06-19T21:19:09.427Z,20.00
2018-06-19T21:21:38.158Z,19.80
2018-06-19T21:24:06.888Z,19.60
2018-06-19T21:26:35.326Z,19.50
2018-06-19T21:29:03.786Z,19.40
2018-06-19T21:31:32.193Z,19.40
2018-06-19T21:34:00.690Z,19.50
2018-06-19T21:36:29.142Z,19.60
2018-06-19T21:38:58.212Z,19.40
2018-06-19T21:41:26.625Z,19.30
2018-06-19T21:43:55.365Z,19.10
2018-06-19T21:46:23.783Z,19.30
2018-06-19T21:48:52.258Z,19.40
2018-06-19T21:51:20.670Z,19.60
2018-06-19T21:53:49.110Z,19.60
2018-06-19T21:56:17.519Z,19.40
2018-06-19T21:58:45.958Z,19.30
2018-06-19T22:01:14.382Z,19.00
2018-06-19T22:03:42.829Z,19.00
2018-06-19T22:06:11.246Z,19.10
2018-06-19T22:08:45.118Z,19.00
2018-06-19T22:11:14.429Z,18.80
2018-06-19T22:13:42.873Z,18.80
2018-06-19T22:16:11.331Z,18.80
2018-06-19T22:18:39.782Z,18.90
2018-06-19T22:21:08.451Z,18.70
2018-06-19T22:23:36.929Z,18.60
2018-06-19T22:26:05.454Z,18.50
2018-06-19T22:28:34.297Z,18.40
2018-06-19T22:31:02.735Z,18.60
2018-06-19T22:33:31.178Z,18.50
2018-06-19T22:35:59.658Z,18.60
2018-06-19T22:38:28.152Z,18.70
2018-06-19T22:40:56.598Z,18.40
2018-06-19T22:43:25.028Z,18.40
2018-06-19T22:45:53.503Z,18.20
2018-06-19T22:48:21.961Z,18.10
2018-06-19T22:50:50.431Z,18.30
2018-06-19T22:53:19.083Z,18.40
2018-06-19T22:55:47.554Z,18.20
2018-06-19T22:58:16.013Z,18.00
2018-06-19T23:00:44.473Z,17.90
2018-06-19T23:03:12.917Z,18.10
2018-06-19T23:05:41.381Z,18.30
2018-06-19T23:08:09.834Z,18.30
2018-06-19T23:10:38.305Z,18.20
2018-06-19T23:13:06.757Z,18.30
2018-06-19T23:15:35.226Z,18.40
2018-06-19T23:18:03.683Z,18.40
2018-06-19T23:20:32.138Z,18.50
2018-06-19T23:23:00.578Z,18.40
2018-06-19T23:25:29.045Z,18.30
2018-06-19T23:27:58.335Z,18.60
2018-06-19T23:30:26.819Z,18.70
2018-06-19T23:32:55.260Z,18.60
2018-06-19T23:35:23.718Z,18.60
2018-06-19T23:37:52.183Z,18.40
2018-06-19T23:40:20.662Z,18.30
2018-06-19T23:42:49.110Z,18.50
2018-06-19T23:45:17.579Z,18.80
2018-06-19T23:47:46.018Z,18.70
2018-06-19T23:50:14.461Z,18.80
2018-06-19T23:52:42.926Z,18.70
2018-06-19T23:55:11.379Z,18.80
2018-06-19T23:57:39.867Z,18.80
